Warm Springs, Georgia
Current Conditions -  °F | °C
As of 1:15 PM on Thursday 27 Nov 2014 (Local Time) from KLGC Reporting Station
Broken Clouds Broken Clouds  
Wind Chill: 51°   Ceiling: 4300
Heat Index: 51°   Visibility: 10mi
Dew Point: 33°   Wind: 14mph
Humidity: 49%   Direction: 320°NW
Pressure: 30.32"   Gusts: 23mph
Location:  32.89°N, 84.68°W
Report Text: KLGC 271815Z AUTO 32012G20KT 10SM BKN043 BKN050 11/00 A3032 RMK AO2 T01060003
Loading
Personal Weather Stations






























Interactive Weather Map New forecast layout! Learn more

10-Day Weather Forecast

Advertisements
Track Severe Weather on mobile